Flight Track Log - Related Links

Times and Time Zones

All times are in EDT time to prevent confusion due to time zone crossing. See the CTL17 flight status page for this flight to view local times or setup timezone preferences in your user account.

Time Position Orientation Groundspeed Altitude Reporting Facility
EDT Latitude Longitude Course Direction KTS MPH feet Rate Location/Type
Mon 03:53:30 PM 42.6653 -83.4014 North 117 135 1,400  Level Cleveland Center
Mon 03:55:00 PM 42.7110 -83.4005 North  Level FlightAware Approximate
Mon 04:02:00 PM 42.9434 -83.4144 321° Northwest  Level FlightAware Approximate
Mon 04:03:00 PM 42.9708 -83.4445 321° Northwest  Level FlightAware Approximate
Mon 04:04:00 PM 42.9982 -83.4747 321° Northwest  Level FlightAware Approximate
Mon 04:05:00 PM 43.0256 -83.5049 321° Northwest  Level FlightAware Approximate
Mon 04:06:00 PM 43.0530 -83.5351 321° Northwest  Level FlightAware Approximate
Mon 04:07:00 PM 43.0803 -83.5654 321° Northwest  Level FlightAware Approximate
Mon 04:08:00 PM 43.1077 -83.5957 321° Northwest  Level FlightAware Approximate
Mon 04:09:00 PM 43.1351 -83.6260 321° Northwest  Level FlightAware Approximate
Mon 04:10:00 PM 43.1624 -83.6563 321° Northwest  Level FlightAware Approximate
Mon 04:11:00 PM 43.1897 -83.6867 321° Northwest  Level FlightAware Approximate
Mon 04:12:00 PM 43.2170 -83.7171 318° Northwest  Level FlightAware Approximate
Mon 04:13:00 PM 43.2434 -83.7492 318° Northwest  Level FlightAware Approximate
Mon 04:14:00 PM 43.2696 -83.7813 318° Northwest  Level FlightAware Approximate
Mon 04:15:00 PM 43.2959 -83.8134 318° Northwest  Level FlightAware Approximate
Mon 04:16:00 PM 43.3222 -83.8455 318° Northwest  Level FlightAware Approximate
Mon 04:17:00 PM 43.3485 -83.8777 318° Northwest  Level FlightAware Approximate
Mon 04:18:00 PM 43.3754 -83.9087 324° Northwest  Level FlightAware Approximate
Mon 04:19:00 PM 43.4039 -83.9372 324° Northwest  Level FlightAware Approximate
Mon 04:20:00 PM 43.4324 -83.9656 324° Northwest  Level FlightAware Approximate
Mon 04:21:00 PM 43.4608 -83.9941 324° Northwest  Level FlightAware Approximate
Mon 04:22:00 PM 43.4893 -84.0226 324° Northwest  Level FlightAware Approximate
Mon 04:23:00 PM 43.5125 -84.0582 305° West  Level FlightAware Approximate
Mon 04:24:00 PM 43.5167 -84.0667 305° West  Level FlightAware Approximate
Mon 04:25:00 PM 43.5329 -84.0796 305° West  Level Estimated
Mon 04:26:00 PM 43.5329 -84.0796 305° West  Level Estimated

Login

Don't have an account? Register now (free) for customized features, flight alerts, and more!